sensor_id;sensor_type;location;lat;lon;timestamp;P1;durP1;ratioP1;P2;durP2;ratioP2
22675;SDS011;12521;43.310;21.876;2023-05-15T00:00:28;13.0;;;10.0;;
22675;SDS011;12521;43.310;21.876;2023-05-15T00:05:07;13.0;;;10.0;;
22675;SDS011;12521;43.310;21.876;2023-05-15T00:09:43;9.0;;;9.0;;
22675;SDS011;12521;43.310;21.876;2023-05-15T00:14:20;9.0;;;9.0;;
22675;SDS011;12521;43.310;21.876;2023-05-15T00:18:56;10.0;;;10.0;;
22675;SDS011;12521;43.310;21.876;2023-05-15T00:23:32;10.0;;;10.0;;
22675;SDS011;12521;43.310;21.876;2023-05-15T00:28:09;12.0;;;10.0;;
22675;SDS011;12521;43.310;21.876;2023-05-15T00:32:45;12.0;;;10.0;;
22675;SDS011;12521;43.310;21.876;2023-05-15T00:37:22;12.0;;;10.0;;
22675;SDS011;12521;43.310;21.876;2023-05-15T00:42:01;12.0;;;10.0;;
22675;SDS011;12521;43.310;21.876;2023-05-15T00:46:45;12.0;;;10.0;;
22675;SDS011;12521;43.310;21.876;2023-05-15T00:51:27;11.0;;;10.0;;
22675;SDS011;12521;43.310;21.876;2023-05-15T00:56:07;11.0;;;10.0;;
22675;SDS011;12521;43.310;21.876;2023-05-15T01:00:50;10.0;;;9.0;;
22675;SDS011;12521;43.310;21.876;2023-05-15T01:05:28;10.0;;;9.0;;
22675;SDS011;12521;43.310;21.876;2023-05-15T01:10:09;10.0;;;8.0;;
22675;SDS011;12521;43.310;21.876;2023-05-15T01:14:49;10.0;;;8.0;;
22675;SDS011;12521;43.310;21.876;2023-05-15T01:19:26;10.0;;;8.0;;
22675;SDS011;12521;43.310;21.876;2023-05-15T01:24:40;10.0;;;8.0;;
22675;SDS011;12521;43.310;21.876;2023-05-15T01:31:23;9.0;;;8.0;;
22675;SDS011;12521;43.310;21.876;2023-05-15T01:36:23;9.0;;;8.0;;
22675;SDS011;12521;43.310;21.876;2023-05-15T01:41:23;10.0;;;8.0;;
22675;SDS011;12521;43.310;21.876;2023-05-15T01:46:08;10.0;;;8.0;;
22675;SDS011;12521;43.310;21.876;2023-05-15T01:51:02;10.0;;;9.0;;
22675;SDS011;12521;43.310;21.876;2023-05-15T01:55:49;10.0;;;9.0;;
22675;SDS011;12521;43.310;21.876;2023-05-15T02:00:32;11.0;;;9.0;;
22675;SDS011;12521;43.310;21.876;2023-05-15T02:05:15;11.0;;;9.0;;
22675;SDS011;12521;43.310;21.876;2023-05-15T02:09:58;12.0;;;9.0;;
22675;SDS011;12521;43.310;21.876;2023-05-15T02:14:41;12.0;;;9.0;;
22675;SDS011;12521;43.310;21.876;2023-05-15T02:19:25;10.0;;;8.0;;
22675;SDS011;12521;43.310;21.876;2023-05-15T02:24:03;10.0;;;8.0;;
22675;SDS011;12521;43.310;21.876;2023-05-15T02:29:01;8.0;;;8.0;;
22675;SDS011;12521;43.310;21.876;2023-05-15T02:34:17;8.0;;;8.0;;
22675;SDS011;12521;43.310;21.876;2023-05-15T02:39:28;10.0;;;9.0;;
22675;SDS011;12521;43.310;21.876;2023-05-15T02:44:12;10.0;;;9.0;;
22675;SDS011;12521;43.310;21.876;2023-05-15T02:48:54;11.0;;;10.0;;
22675;SDS011;12521;43.310;21.876;2023-05-15T02:53:32;11.0;;;10.0;;
22675;SDS011;12521;43.310;21.876;2023-05-15T02:58:14;10.0;;;10.0;;
22675;SDS011;12521;43.310;21.876;2023-05-15T03:02:50;10.0;;;10.0;;
22675;SDS011;12521;43.310;21.876;2023-05-15T03:07:26;10.0;;;10.0;;
22675;SDS011;12521;43.310;21.876;2023-05-15T03:12:03;9.0;;;9.0;;
22675;SDS011;12521;43.310;21.876;2023-05-15T03:16:40;9.0;;;9.0;;
22675;SDS011;12521;43.310;21.876;2023-05-15T03:21:16;10.0;;;9.0;;
22675;SDS011;12521;43.310;21.876;2023-05-15T03:25:53;10.0;;;9.0;;
22675;SDS011;12521;43.310;21.876;2023-05-15T03:30:30;10.0;;;9.0;;
22675;SDS011;12521;43.310;21.876;2023-05-15T03:35:08;10.0;;;9.0;;
22675;SDS011;12521;43.310;21.876;2023-05-15T03:39:46;12.0;;;10.0;;
22675;SDS011;12521;43.310;21.876;2023-05-15T03:44:23;12.0;;;10.0;;
22675;SDS011;12521;43.310;21.876;2023-05-15T03:48:59;14.0;;;11.0;;
22675;SDS011;12521;43.310;21.876;2023-05-15T03:53:36;14.0;;;11.0;;
22675;SDS011;12521;43.310;21.876;2023-05-15T03:58:13;14.0;;;11.0;;
22675;SDS011;12521;43.310;21.876;2023-05-15T04:02:50;14.0;;;11.0;;
22675;SDS011;12521;43.310;21.876;2023-05-15T04:07:26;14.0;;;11.0;;
22675;SDS011;12521;43.310;21.876;2023-05-15T04:12:04;14.0;;;11.0;;
22675;SDS011;12521;43.310;21.876;2023-05-15T04:16:41;14.0;;;11.0;;
22675;SDS011;12521;43.310;21.876;2023-05-15T04:21:17;14.0;;;10.0;;
22675;SDS011;12521;43.310;21.876;2023-05-15T04:25:54;14.0;;;10.0;;
22675;SDS011;12521;43.310;21.876;2023-05-15T04:30:30;13.0;;;10.0;;
22675;SDS011;12521;43.310;21.876;2023-05-15T04:35:09;13.0;;;10.0;;
22675;SDS011;12521;43.310;21.876;2023-05-15T04:39:46;12.0;;;10.0;;
22675;SDS011;12521;43.310;21.876;2023-05-15T04:44:23;12.0;;;10.0;;
22675;SDS011;12521;43.310;21.876;2023-05-15T04:49:00;11.0;;;10.0;;
22675;SDS011;12521;43.310;21.876;2023-05-15T04:53:36;11.0;;;10.0;;
22675;SDS011;12521;43.310;21.876;2023-05-15T04:58:13;12.0;;;11.0;;
22675;SDS011;12521;43.310;21.876;2023-05-15T05:02:49;12.0;;;11.0;;
22675;SDS011;12521;43.310;21.876;2023-05-15T05:07:26;12.0;;;11.0;;
22675;SDS011;12521;43.310;21.876;2023-05-15T05:12:04;13.0;;;12.0;;
22675;SDS011;12521;43.310;21.876;2023-05-15T05:16:44;13.0;;;12.0;;
22675;SDS011;12521;43.310;21.876;2023-05-15T05:21:20;15.0;;;14.0;;
22675;SDS011;12521;43.310;21.876;2023-05-15T05:25:59;15.0;;;14.0;;
22675;SDS011;12521;43.310;21.876;2023-05-15T05:30:35;17.0;;;16.0;;
22675;SDS011;12521;43.310;21.876;2023-05-15T05:35:13;17.0;;;16.0;;
22675;SDS011;12521;43.310;21.876;2023-05-15T05:39:49;16.0;;;15.0;;
22675;SDS011;12521;43.310;21.876;2023-05-15T05:44:25;16.0;;;15.0;;
22675;SDS011;12521;43.310;21.876;2023-05-15T05:49:02;16.0;;;14.0;;
22675;SDS011;12521;43.310;21.876;2023-05-15T05:53:38;16.0;;;14.0;;
22675;SDS011;12521;43.310;21.876;2023-05-15T05:58:14;16.0;;;14.0;;
22675;SDS011;12521;43.310;21.876;2023-05-15T06:02:57;16.0;;;14.0;;
22675;SDS011;12521;43.310;21.876;2023-05-15T06:07:35;16.0;;;14.0;;
22675;SDS011;12521;43.310;21.876;2023-05-15T06:12:12;16.0;;;14.0;;
22675;SDS011;12521;43.310;21.876;2023-05-15T06:16:49;16.0;;;14.0;;
22675;SDS011;12521;43.310;21.876;2023-05-15T06:21:27;18.0;;;14.0;;
22675;SDS011;12521;43.310;21.876;2023-05-15T06:26:04;18.0;;;14.0;;
22675;SDS011;12521;43.310;21.876;2023-05-15T06:30:41;21.0;;;15.0;;
22675;SDS011;12521;43.310;21.876;2023-05-15T06:35:18;21.0;;;15.0;;
22675;SDS011;12521;43.310;21.876;2023-05-15T06:39:54;22.0;;;16.0;;
22675;SDS011;12521;43.310;21.876;2023-05-15T06:44:30;22.0;;;16.0;;
22675;SDS011;12521;43.310;21.876;2023-05-15T06:49:07;23.0;;;17.0;;
22675;SDS011;12521;43.310;21.876;2023-05-15T06:53:43;23.0;;;17.0;;
22675;SDS011;12521;43.310;21.876;2023-05-15T06:58:19;22.0;;;16.0;;
22675;SDS011;12521;43.310;21.876;2023-05-15T07:02:55;22.0;;;16.0;;
22675;SDS011;12521;43.310;21.876;2023-05-15T07:07:31;22.0;;;16.0;;
22675;SDS011;12521;43.310;21.876;2023-05-15T07:12:08;20.0;;;15.0;;
22675;SDS011;12521;43.310;21.876;2023-05-15T07:16:44;20.0;;;15.0;;
22675;SDS011;12521;43.310;21.876;2023-05-15T07:21:20;18.0;;;14.0;;
22675;SDS011;12521;43.310;21.876;2023-05-15T07:25:57;18.0;;;14.0;;
22675;SDS011;12521;43.310;21.876;2023-05-15T07:30:33;17.0;;;14.0;;
22675;SDS011;12521;43.310;21.876;2023-05-15T07:35:09;17.0;;;14.0;;
22675;SDS011;12521;43.310;21.876;2023-05-15T07:39:46;14.0;;;13.0;;
22675;SDS011;12521;43.310;21.876;2023-05-15T07:44:23;14.0;;;13.0;;
22675;SDS011;12521;43.310;21.876;2023-05-15T07:48:59;12.0;;;12.0;;
22675;SDS011;12521;43.310;21.876;2023-05-15T07:53:36;12.0;;;12.0;;
22675;SDS011;12521;43.310;21.876;2023-05-15T07:58:12;14.0;;;12.0;;
22675;SDS011;12521;43.310;21.876;2023-05-15T08:02:49;14.0;;;12.0;;
22675;SDS011;12521;43.310;21.876;2023-05-15T08:07:25;14.0;;;12.0;;
22675;SDS011;12521;43.310;21.876;2023-05-15T08:12:19;15.0;;;11.0;;
22675;SDS011;12521;43.310;21.876;2023-05-15T08:16:57;15.0;;;11.0;;
22675;SDS011;12521;43.310;21.876;2023-05-15T08:21:33;24.0;;;18.0;;
22675;SDS011;12521;43.310;21.876;2023-05-15T08:26:09;24.0;;;18.0;;
22675;SDS011;12521;43.310;21.876;2023-05-15T08:30:46;33.0;;;26.0;;
22675;SDS011;12521;43.310;21.876;2023-05-15T08:35:22;33.0;;;26.0;;
22675;SDS011;12521;43.310;21.876;2023-05-15T08:39:58;34.0;;;24.0;;
22675;SDS011;12521;43.310;21.876;2023-05-15T08:44:35;34.0;;;24.0;;
22675;SDS011;12521;43.310;21.876;2023-05-15T08:49:25;34.0;;;23.0;;
22675;SDS011;12521;43.310;21.876;2023-05-15T08:54:38;34.0;;;23.0;;
22675;SDS011;12521;43.310;21.876;2023-05-15T08:59:17;24.0;;;18.0;;
22675;SDS011;12521;43.310;21.876;2023-05-15T09:03:56;24.0;;;18.0;;
22675;SDS011;12521;43.310;21.876;2023-05-15T09:08:33;15.0;;;14.0;;
22675;SDS011;12521;43.310;21.876;2023-05-15T09:13:17;15.0;;;14.0;;
22675;SDS011;12521;43.310;21.876;2023-05-15T09:17:55;15.0;;;14.0;;
22675;SDS011;12521;43.310;21.876;2023-05-15T09:22:35;14.0;;;13.0;;
22675;SDS011;12521;43.310;21.876;2023-05-15T09:27:12;14.0;;;13.0;;
22675;SDS011;12521;43.310;21.876;2023-05-15T09:31:48;13.0;;;12.0;;
22675;SDS011;12521;43.310;21.876;2023-05-15T09:36:25;13.0;;;12.0;;
22675;SDS011;12521;43.310;21.876;2023-05-15T09:41:04;14.0;;;12.0;;
22675;SDS011;12521;43.310;21.876;2023-05-15T09:45:46;14.0;;;12.0;;
22675;SDS011;12521;43.310;21.876;2023-05-15T09:50:31;14.0;;;11.0;;
22675;SDS011;12521;43.310;21.876;2023-05-15T09:55:14;14.0;;;11.0;;
22675;SDS011;12521;43.310;21.876;2023-05-15T09:59:53;22.0;;;16.0;;
22675;SDS011;12521;43.310;21.876;2023-05-15T10:04:33;22.0;;;16.0;;
22675;SDS011;12521;43.310;21.876;2023-05-15T10:09:11;30.0;;;20.0;;
22675;SDS011;12521;43.310;21.876;2023-05-15T10:13:50;30.0;;;20.0;;
22675;SDS011;12521;43.310;21.876;2023-05-15T10:18:29;25.0;;;16.0;;
22675;SDS011;12521;43.310;21.876;2023-05-15T10:23:17;25.0;;;16.0;;
22675;SDS011;12521;43.310;21.876;2023-05-15T10:28:00;25.0;;;16.0;;
22675;SDS011;12521;43.310;21.876;2023-05-15T10:32:45;20.0;;;13.0;;
22675;SDS011;12521;43.310;21.876;2023-05-15T10:37:28;20.0;;;13.0;;
22675;SDS011;12521;43.310;21.876;2023-05-15T10:42:11;15.0;;;11.0;;
22675;SDS011;12521;43.310;21.876;2023-05-15T10:46:52;15.0;;;11.0;;
22675;SDS011;12521;43.310;21.876;2023-05-15T10:51:31;10.0;;;9.0;;
22675;SDS011;12521;43.310;21.876;2023-05-15T10:56:12;10.0;;;9.0;;
22675;SDS011;12521;43.310;21.876;2023-05-15T11:00:51;10.0;;;9.0;;
22675;SDS011;12521;43.310;21.876;2023-05-15T11:05:27;10.0;;;9.0;;
22675;SDS011;12521;43.310;21.876;2023-05-15T11:10:35;10.0;;;9.0;;
22675;SDS011;12521;43.310;21.876;2023-05-15T11:15:20;10.0;;;9.0;;
22675;SDS011;12521;43.310;21.876;2023-05-15T11:19:58;11.0;;;10.0;;
22675;SDS011;12521;43.310;21.876;2023-05-15T11:24:49;11.0;;;10.0;;
22675;SDS011;12521;43.310;21.876;2023-05-15T11:30:07;12.0;;;10.0;;
22675;SDS011;12521;43.310;21.876;2023-05-15T11:34:58;12.0;;;10.0;;
22675;SDS011;12521;43.310;21.876;2023-05-15T11:39:38;13.0;;;11.0;;
22675;SDS011;12521;43.310;21.876;2023-05-15T11:44:19;13.0;;;11.0;;
22675;SDS011;12521;43.310;21.876;2023-05-15T11:48:59;14.0;;;12.0;;
22675;SDS011;12521;43.310;21.876;2023-05-15T11:53:38;14.0;;;12.0;;
22675;SDS011;12521;43.310;21.876;2023-05-15T11:58:21;14.0;;;12.0;;
22675;SDS011;12521;43.310;21.876;2023-05-15T12:03:01;14.0;;;12.0;;
22675;SDS011;12521;43.310;21.876;2023-05-15T12:07:41;14.0;;;12.0;;
22675;SDS011;12521;43.310;21.876;2023-05-15T12:12:19;14.0;;;12.0;;
22675;SDS011;12521;43.310;21.876;2023-05-15T12:16:58;14.0;;;12.0;;
22675;SDS011;12521;43.310;21.876;2023-05-15T12:21:35;18.0;;;13.0;;
22675;SDS011;12521;43.310;21.876;2023-05-15T12:26:12;18.0;;;13.0;;
22675;SDS011;12521;43.310;21.876;2023-05-15T12:30:49;22.0;;;14.0;;
22675;SDS011;12521;43.310;21.876;2023-05-15T12:35:28;22.0;;;14.0;;
22675;SDS011;12521;43.310;21.876;2023-05-15T12:40:06;20.0;;;14.0;;
22675;SDS011;12521;43.310;21.876;2023-05-15T12:44:45;20.0;;;14.0;;
22675;SDS011;12521;43.310;21.876;2023-05-15T12:49:26;18.0;;;13.0;;
22675;SDS011;12521;43.310;21.876;2023-05-15T12:54:02;18.0;;;13.0;;
22675;SDS011;12521;43.310;21.876;2023-05-15T12:58:39;18.0;;;12.0;;
22675;SDS011;12521;43.310;21.876;2023-05-15T13:03:19;18.0;;;12.0;;
22675;SDS011;12521;43.310;21.876;2023-05-15T13:07:57;18.0;;;12.0;;
22675;SDS011;12521;43.310;21.876;2023-05-15T13:12:44;17.0;;;12.0;;
22675;SDS011;12521;43.310;21.876;2023-05-15T13:17:21;17.0;;;12.0;;
22675;SDS011;12521;43.310;21.876;2023-05-15T13:21:58;15.0;;;12.0;;
22675;SDS011;12521;43.310;21.876;2023-05-15T13:26:35;15.0;;;12.0;;
22675;SDS011;12521;43.310;21.876;2023-05-15T13:31:12;13.0;;;11.0;;
22675;SDS011;12521;43.310;21.876;2023-05-15T13:35:49;13.0;;;11.0;;
22675;SDS011;12521;43.310;21.876;2023-05-15T13:40:25;15.0;;;12.0;;
22675;SDS011;12521;43.310;21.876;2023-05-15T13:45:03;15.0;;;12.0;;
22675;SDS011;12521;43.310;21.876;2023-05-15T13:49:42;17.0;;;13.0;;
22675;SDS011;12521;43.310;21.876;2023-05-15T13:54:20;17.0;;;13.0;;
22675;SDS011;12521;43.310;21.876;2023-05-15T13:58:56;16.0;;;12.0;;
22675;SDS011;12521;43.310;21.876;2023-05-15T14:03:33;16.0;;;12.0;;
22675;SDS011;12521;43.310;21.876;2023-05-15T14:08:10;16.0;;;12.0;;
22675;SDS011;12521;43.310;21.876;2023-05-15T14:12:46;14.0;;;11.0;;
22675;SDS011;12521;43.310;21.876;2023-05-15T14:17:23;14.0;;;11.0;;
22675;SDS011;12521;43.310;21.876;2023-05-15T14:22:00;15.0;;;12.0;;
22675;SDS011;12521;43.310;21.876;2023-05-15T14:26:37;15.0;;;12.0;;
22675;SDS011;12521;43.310;21.876;2023-05-15T14:31:14;16.0;;;14.0;;
22675;SDS011;12521;43.310;21.876;2023-05-15T14:35:50;16.0;;;14.0;;
22675;SDS011;12521;43.310;21.876;2023-05-15T14:40:28;16.0;;;13.0;;
22675;SDS011;12521;43.310;21.876;2023-05-15T14:45:05;16.0;;;13.0;;
22675;SDS011;12521;43.310;21.876;2023-05-15T14:49:45;16.0;;;12.0;;
22675;SDS011;12521;43.310;21.876;2023-05-15T14:54:22;16.0;;;12.0;;
22675;SDS011;12521;43.310;21.876;2023-05-15T14:58:58;16.0;;;12.0;;
22675;SDS011;12521;43.310;21.876;2023-05-15T15:03:35;16.0;;;12.0;;
22675;SDS011;12521;43.310;21.876;2023-05-15T15:08:11;16.0;;;12.0;;
22675;SDS011;12521;43.310;21.876;2023-05-15T15:22:04;17.0;;;12.0;;
22675;SDS011;12521;43.310;21.876;2023-05-15T15:26:41;17.0;;;12.0;;
22675;SDS011;12521;43.310;21.876;2023-05-15T15:31:17;17.0;;;12.0;;
22675;SDS011;12521;43.310;21.876;2023-05-15T15:35:55;17.0;;;12.0;;
22675;SDS011;12521;43.310;21.876;2023-05-15T15:40:31;26.0;;;20.0;;
22675;SDS011;12521;43.310;21.876;2023-05-15T15:45:10;26.0;;;20.0;;
22675;SDS011;12521;43.310;21.876;2023-05-15T15:49:48;34.0;;;29.0;;
22675;SDS011;12521;43.310;21.876;2023-05-15T15:54:27;34.0;;;29.0;;
22675;SDS011;12521;43.310;21.876;2023-05-15T15:59:04;32.0;;;26.0;;
22675;SDS011;12521;43.310;21.876;2023-05-15T16:03:40;32.0;;;26.0;;
22675;SDS011;12521;43.310;21.876;2023-05-15T16:08:16;32.0;;;26.0;;
22675;SDS011;12521;43.310;21.876;2023-05-15T16:12:53;31.0;;;22.0;;
22675;SDS011;12521;43.310;21.876;2023-05-15T16:17:29;31.0;;;22.0;;
22675;SDS011;12521;43.310;21.876;2023-05-15T16:22:05;32.0;;;24.0;;
22675;SDS011;12521;43.310;21.876;2023-05-15T16:26:42;32.0;;;24.0;;
22675;SDS011;12521;43.310;21.876;2023-05-15T16:31:18;32.0;;;26.0;;
22675;SDS011;12521;43.310;21.876;2023-05-15T16:35:55;32.0;;;26.0;;
22675;SDS011;12521;43.310;21.876;2023-05-15T16:40:32;30.0;;;22.0;;
22675;SDS011;12521;43.310;21.876;2023-05-15T16:45:09;30.0;;;22.0;;
22675;SDS011;12521;43.310;21.876;2023-05-15T16:49:46;28.0;;;17.0;;
22675;SDS011;12521;43.310;21.876;2023-05-15T16:54:22;28.0;;;17.0;;
22675;SDS011;12521;43.310;21.876;2023-05-15T16:58:59;24.0;;;16.0;;
22675;SDS011;12521;43.310;21.876;2023-05-15T17:03:36;24.0;;;16.0;;
22675;SDS011;12521;43.310;21.876;2023-05-15T17:08:13;24.0;;;16.0;;
22675;SDS011;12521;43.310;21.876;2023-05-15T17:12:49;21.0;;;16.0;;
22675;SDS011;12521;43.310;21.876;2023-05-15T17:17:27;21.0;;;16.0;;
22675;SDS011;12521;43.310;21.876;2023-05-15T17:22:04;21.0;;;15.0;;
22675;SDS011;12521;43.310;21.876;2023-05-15T17:26:41;21.0;;;15.0;;
22675;SDS011;12521;43.310;21.876;2023-05-15T17:31:17;21.0;;;14.0;;
22675;SDS011;12521;43.310;21.876;2023-05-15T17:35:54;21.0;;;14.0;;
22675;SDS011;12521;43.310;21.876;2023-05-15T17:40:30;20.0;;;14.0;;
22675;SDS011;12521;43.310;21.876;2023-05-15T17:45:09;20.0;;;14.0;;
22675;SDS011;12521;43.310;21.876;2023-05-15T17:49:46;19.0;;;14.0;;
22675;SDS011;12521;43.310;21.876;2023-05-15T17:54:22;19.0;;;14.0;;
22675;SDS011;12521;43.310;21.876;2023-05-15T17:58:59;36.0;;;26.0;;
22675;SDS011;12521;43.310;21.876;2023-05-15T18:03:35;36.0;;;26.0;;
22675;SDS011;12521;43.310;21.876;2023-05-15T18:08:12;36.0;;;26.0;;
22675;SDS011;12521;43.310;21.876;2023-05-15T18:12:49;52.0;;;38.0;;
22675;SDS011;12521;43.310;21.876;2023-05-15T18:17:26;52.0;;;38.0;;
22675;SDS011;12521;43.310;21.876;2023-05-15T18:22:04;42.0;;;30.0;;
22675;SDS011;12521;43.310;21.876;2023-05-15T18:26:41;42.0;;;30.0;;
22675;SDS011;12521;43.310;21.876;2023-05-15T18:31:17;32.0;;;22.0;;
22675;SDS011;12521;43.310;21.876;2023-05-15T18:35:54;32.0;;;22.0;;
22675;SDS011;12521;43.310;21.876;2023-05-15T18:40:31;28.0;;;19.0;;
22675;SDS011;12521;43.310;21.876;2023-05-15T18:45:09;28.0;;;19.0;;
22675;SDS011;12521;43.310;21.876;2023-05-15T18:49:46;23.0;;;16.0;;
22675;SDS011;12521;43.310;21.876;2023-05-15T18:54:23;23.0;;;16.0;;
22675;SDS011;12521;43.310;21.876;2023-05-15T18:58:59;23.0;;;16.0;;
22675;SDS011;12521;43.310;21.876;2023-05-15T19:03:35;23.0;;;16.0;;
22675;SDS011;12521;43.310;21.876;2023-05-15T19:08:12;23.0;;;16.0;;
22675;SDS011;12521;43.310;21.876;2023-05-15T19:12:48;23.0;;;16.0;;
22675;SDS011;12521;43.310;21.876;2023-05-15T19:17:24;23.0;;;16.0;;
22675;SDS011;12521;43.310;21.876;2023-05-15T19:22:00;22.0;;;16.0;;
22675;SDS011;12521;43.310;21.876;2023-05-15T19:26:37;22.0;;;16.0;;
22675;SDS011;12521;43.310;21.876;2023-05-15T19:31:14;21.0;;;15.0;;
22675;SDS011;12521;43.310;21.876;2023-05-15T19:35:50;21.0;;;15.0;;
22675;SDS011;12521;43.310;21.876;2023-05-15T19:40:27;22.0;;;16.0;;
22675;SDS011;12521;43.310;21.876;2023-05-15T19:45:07;22.0;;;16.0;;
22675;SDS011;12521;43.310;21.876;2023-05-15T19:49:46;22.0;;;16.0;;
22675;SDS011;12521;43.310;21.876;2023-05-15T19:54:22;22.0;;;16.0;;
22675;SDS011;12521;43.310;21.876;2023-05-15T19:58:59;20.0;;;16.0;;
22675;SDS011;12521;43.310;21.876;2023-05-15T20:03:35;20.0;;;16.0;;
22675;SDS011;12521;43.310;21.876;2023-05-15T20:08:12;20.0;;;16.0;;
22675;SDS011;12521;43.310;21.876;2023-05-15T20:12:49;18.0;;;15.0;;
22675;SDS011;12521;43.310;21.876;2023-05-15T20:17:26;18.0;;;15.0;;
22675;SDS011;12521;43.310;21.876;2023-05-15T20:22:03;18.0;;;14.0;;
22675;SDS011;12521;43.310;21.876;2023-05-15T20:26:40;18.0;;;14.0;;
22675;SDS011;12521;43.310;21.876;2023-05-15T20:31:16;18.0;;;14.0;;
22675;SDS011;12521;43.310;21.876;2023-05-15T20:35:52;18.0;;;14.0;;
22675;SDS011;12521;43.310;21.876;2023-05-15T20:40:29;18.0;;;15.0;;
22675;SDS011;12521;43.310;21.876;2023-05-15T20:45:09;18.0;;;15.0;;
22675;SDS011;12521;43.310;21.876;2023-05-15T20:49:46;17.0;;;16.0;;
22675;SDS011;12521;43.310;21.876;2023-05-15T20:54:23;17.0;;;16.0;;
22675;SDS011;12521;43.310;21.876;2023-05-15T20:58:59;17.0;;;15.0;;
22675;SDS011;12521;43.310;21.876;2023-05-15T21:03:36;17.0;;;15.0;;
22675;SDS011;12521;43.310;21.876;2023-05-15T21:08:13;17.0;;;15.0;;
22675;SDS011;12521;43.310;21.876;2023-05-15T21:12:49;17.0;;;14.0;;
22675;SDS011;12521;43.310;21.876;2023-05-15T21:17:26;17.0;;;14.0;;
22675;SDS011;12521;43.310;21.876;2023-05-15T21:22:05;18.0;;;14.0;;
22675;SDS011;12521;43.310;21.876;2023-05-15T21:26:42;18.0;;;14.0;;
22675;SDS011;12521;43.310;21.876;2023-05-15T21:31:18;18.0;;;15.0;;
22675;SDS011;12521;43.310;21.876;2023-05-15T21:35:54;18.0;;;15.0;;
22675;SDS011;12521;43.310;21.876;2023-05-15T21:40:31;17.0;;;14.0;;
22675;SDS011;12521;43.310;21.876;2023-05-15T21:45:08;17.0;;;14.0;;
22675;SDS011;12521;43.310;21.876;2023-05-15T21:49:44;16.0;;;13.0;;
22675;SDS011;12521;43.310;21.876;2023-05-15T21:54:20;16.0;;;13.0;;
22675;SDS011;12521;43.310;21.876;2023-05-15T21:58:57;16.0;;;13.0;;
22675;SDS011;12521;43.310;21.876;2023-05-15T22:03:33;16.0;;;13.0;;
22675;SDS011;12521;43.310;21.876;2023-05-15T22:08:10;16.0;;;13.0;;
22675;SDS011;12521;43.310;21.876;2023-05-15T22:12:47;16.0;;;13.0;;
22675;SDS011;12521;43.310;21.876;2023-05-15T22:17:23;16.0;;;13.0;;
22675;SDS011;12521;43.310;21.876;2023-05-15T22:22:01;16.0;;;14.0;;
22675;SDS011;12521;43.310;21.876;2023-05-15T22:26:38;16.0;;;14.0;;
22675;SDS011;12521;43.310;21.876;2023-05-15T22:31:14;17.0;;;14.0;;
22675;SDS011;12521;43.310;21.876;2023-05-15T22:35:51;17.0;;;14.0;;
22675;SDS011;12521;43.310;21.876;2023-05-15T22:40:28;18.0;;;14.0;;
22675;SDS011;12521;43.310;21.876;2023-05-15T22:45:08;18.0;;;14.0;;
22675;SDS011;12521;43.310;21.876;2023-05-15T22:49:45;18.0;;;15.0;;
22675;SDS011;12521;43.310;21.876;2023-05-15T22:54:23;18.0;;;15.0;;
22675;SDS011;12521;43.310;21.876;2023-05-15T22:58:59;17.0;;;14.0;;
22675;SDS011;12521;43.310;21.876;2023-05-15T23:03:35;17.0;;;14.0;;
22675;SDS011;12521;43.310;21.876;2023-05-15T23:08:11;17.0;;;14.0;;
22675;SDS011;12521;43.310;21.876;2023-05-15T23:12:47;16.0;;;14.0;;
22675;SDS011;12521;43.310;21.876;2023-05-15T23:17:24;16.0;;;14.0;;
22675;SDS011;12521;43.310;21.876;2023-05-15T23:22:00;16.0;;;14.0;;
22675;SDS011;12521;43.310;21.876;2023-05-15T23:26:36;16.0;;;14.0;;
22675;SDS011;12521;43.310;21.876;2023-05-15T23:31:13;16.0;;;13.0;;
22675;SDS011;12521;43.310;21.876;2023-05-15T23:35:50;16.0;;;13.0;;
22675;SDS011;12521;43.310;21.876;2023-05-15T23:40:27;16.0;;;13.0;;
22675;SDS011;12521;43.310;21.876;2023-05-15T23:45:08;16.0;;;13.0;;
22675;SDS011;12521;43.310;21.876;2023-05-15T23:49:46;17.0;;;13.0;;
22675;SDS011;12521;43.310;21.876;2023-05-15T23:54:23;17.0;;;13.0;;
22675;SDS011;12521;43.310;21.876;2023-05-15T23:59:00;16.0;;;14.0;;
